Domov               UVHVVR             MKGP            O straneh              
ZDRAVSTVENO VARSTVO RASTLIN
  MREŽA AGROMET. POSTAJ
 ► PROGNOSTIČNA OBVESTILA
AGROMETEOROLOŠKI PODATKI -
ARSO
OBVLADOVANJE TVEGANJ ZARADI
NEUGODNIH VREMENSKIH RAZMER
  ► NARAVNE NESREČE
  ► SUŠA/MOČA
  ► NAMAKANJE
  ► ŽLED (gozdarstvo)
KARTOGRAFSKI PRIKAZI
SPLETNE POVEZAVE
PROJEKTI IN PUBLIKACIJE

AGROMETEOROLOŠKA MREŽA: VREMENSKE POSTAJE IN FENOLOŠKA OPAZOVANJA

Pregled podatkov za lokacijo Pradisiol, meteorološka postaja 861649

Pregled senzorjev na lokaciji

ID Ime Zadnja
vrednost
Datum
zadnje
spremembe
Tip
senzorja
4074 Temperatura 2 m ( °C) 9,7 °C 23.8.2017 05:30 50YA
4075 Relativna vlaga 2 m (% RH) 98,08 % RH 23.8.2017 05:30 50YA
4076 Omočenost lista (U) 10 U 23.8.2017 05:30 A730WET
4077 Padavine 0.2 mm (mm) 0 mm 23.8.2017 05:30 Rain-O-Matic

Pregled podatkov zadnjih 24 ur

Zap.
št.
Datum in čas Pradisiol
Omočenost
lista
Padavine
0.2
mm
Relativna
vlaga
2
m
Temperatura
2
m
0 23.8.2017 04:30 10 0 98,08 9,7
1 23.8.2017 04:00 10 0 97,86 9,93
2 23.8.2017 03:30 10 0 97,73 10,18
3 23.8.2017 03:00 10 0 97,62 10,36
4 23.8.2017 02:30 10 0 97,6 10,67
5 23.8.2017 02:00 10 0 97,37 10,79
6 23.8.2017 01:30 10 0 97,07 11,15
7 23.8.2017 01:00 10 0 96,96 11,36
8 23.8.2017 00:30 10 0 96,55 11,39
9 23.8.2017 00:00 10 0 95,92 11,5
10 22.8.2017 23:30 10 0 95,17 11,74
11 22.8.2017 23:00 10 0 94,5 12,28
12 22.8.2017 22:30 10 0 93,51 12,84
13 22.8.2017 22:00 10 0 93,31 13,32
14 22.8.2017 21:30 10 0 92,24 13,58
15 22.8.2017 21:00 10 0 90,58 14,2
16 22.8.2017 20:30 10 0 88,04 14,83
17 22.8.2017 20:00 10 0 83,98 15,99
18 22.8.2017 19:30 10 0 76,55 17,68
19 22.8.2017 19:00 6 0 62,57 20,63
20 22.8.2017 18:30 0 0 50,36 23,05
21 22.8.2017 18:00 0 0 46,47 24,1
22 22.8.2017 17:30 0 0 46,16 24,77
23 22.8.2017 17:00 0 0 43,56 25,47
24 22.8.2017 16:30 0 0 44,67 25,76
25 22.8.2017 16:00 0 0 45,14 25,43
26 22.8.2017 15:30 0 0 45,69 25,39
27 22.8.2017 15:00 0 0 44,44 25,76
28 22.8.2017 14:30 0 0 43,09 25,71
29 22.8.2017 14:00 0 0 40,66 26,09
30 22.8.2017 13:30 0 0 40,39 25,93
31 22.8.2017 13:00 0 0 38,66 25,98
32 22.8.2017 12:30 1 0 39,24 25,93
33 22.8.2017 12:00 0 0 36,73 26,38
34 22.8.2017 11:30 0 0 34,56 26,6
35 22.8.2017 11:00 0 0 34,91 25,99
36 22.8.2017 10:30 0 0 35,97 25,56
37 22.8.2017 10:00 0 0 38,08 24,56
38 22.8.2017 09:30 0 0 40,51 23,48
39 22.8.2017 09:00 0 0 41,2 22,94
40 22.8.2017 08:30 0 0 50,03 21,62
41 22.8.2017 08:00 6 0 63,91 18,7
42 22.8.2017 07:30 10 0 85,94 15,23
43 22.8.2017 07:00 10 0 98,46 11,82
44 22.8.2017 06:30 10 0 98,63 9,45
© 2011 Ministrstvo za kmetijstvo, gozdarstvo in prehrano. Vse pravice pridržane.